Suamico, Wisconsin
Current Conditions -  °F | °C
As of 9:53 PM on Wednesday 28 Jan 2015 (Local Time) from KGRB Reporting Station
Overcast Overcast  
Wind Chill: 22°   Ceiling: 3600
Heat Index: 31°   Visibility: 9mi
Dew Point: 25°   Wind: 10mph
Humidity: 79%   Direction: 150°SSE
Pressure: 29.88"   Gusts: NA
Location:  44.63°N, 88.04°W
Report Text: KGRB 290353Z 15009KT 9SM OVC036 M01/M04 A2988 RMK AO2 SLP127 T10061039
Loading
Personal Weather Stations






























Interactive Weather Map New forecast layout! Learn more

10-Day Weather Forecast

Advertisements
Track Severe Weather on mobile